Time;durP1;ratioP1;P1;durP2;ratioP2;P2;SDS_P1;SDS_P2;PMS_P1;PMS_P2;Temp;Humidity;BMP_temperature;BMP_pressure;BME280_temperature;BME280_humidity;BME280_pressure;Samples;Min_cycle;Max_cycle;Signal;HPM_P1;HPM_P2
2023/01/15 00:03:05;;;;;;;1.17;0.98;;;;;;;-144.31;100.00;58022.63;5052744;28;20123;-57
2023/01/15 00:06:30;;;;;;;1.48;1.15;;;;;;;-144.31;100.00;58022.63;5053601;28;20496;-60
2023/01/15 00:09:54;;;;;;;1.40;1.23;;;;;;;-144.31;100.00;58022.63;5052974;28;20037;-58
2023/01/15 00:13:18;;;;;;;1.90;0.90;;;;;;;-144.31;100.00;58022.63;5053583;28;20191;-56
2023/01/15 00:16:41;;;;;;;2.13;1.25;;;;;;;-144.31;100.00;58022.63;5053592;28;20042;-58
2023/01/15 00:20:08;;;;;;;1.40;1.00;;;;;;;-144.31;100.00;58022.63;5053620;28;20128;-55
2023/01/15 00:30:59;;;;;;;2.45;1.40;;;;;;;-144.31;100.00;58022.63;5056269;28;20086;-58
2023/01/15 00:34:23;;;;;;;2.17;1.10;;;;;;;-144.31;100.00;58022.63;5056978;28;20037;-57
2023/01/15 00:37:47;;;;;;;1.92;1.27;;;;;;;-144.31;100.00;58022.63;5057209;28;20166;-58
2023/01/15 00:41:12;;;;;;;1.27;1.13;;;;;;;-144.31;100.00;58022.63;5057011;28;20604;-58
2023/01/15 00:44:35;;;;;;;2.05;1.20;;;;;;;-144.31;100.00;58022.63;5057609;28;20061;-57
2023/01/15 00:47:59;;;;;;;1.75;1.15;;;;;;;-144.31;100.00;58022.63;5056758;28;20044;-57
2023/01/15 00:51:24;;;;;;;2.05;1.35;;;;;;;-144.31;100.00;58022.63;5059591;28;20045;-58
2023/01/15 00:54:48;;;;;;;2.53;1.23;;;;;;;-144.31;100.00;58022.63;5056268;28;20440;-55
2023/01/15 00:58:12;;;;;;;1.70;1.23;;;;;;;-144.31;100.00;58022.63;5056638;28;20549;-57
2023/01/15 01:01:36;;;;;;;1.65;1.30;;;;;;;-144.31;100.00;58022.63;5056268;28;20068;-59
2023/01/15 01:05:00;;;;;;;1.10;1.00;;;;;;;-144.31;100.00;58022.63;5065005;28;20040;-55
2023/01/15 01:08:23;;;;;;;1.00;1.00;;;;;;;-144.31;100.00;58022.63;5055618;28;20071;-58
2023/01/15 01:11:47;;;;;;;1.23;1.10;;;;;;;-144.31;100.00;58022.63;5059217;28;20045;-54
2023/01/15 01:15:11;;;;;;;3.50;1.15;;;;;;;-144.31;100.00;58022.63;5055399;28;20164;-57
2023/01/15 01:18:35;;;;;;;0.88;0.85;;;;;;;-144.31;100.00;58022.63;5055331;28;20052;-58
2023/01/15 01:22:02;;;;;;;0.93;0.90;;;;;;;-144.31;100.00;58022.63;5059803;28;20624;-57
2023/01/15 01:25:25;;;;;;;2.25;0.90;;;;;;;-144.31;100.00;58022.63;5059701;28;20051;-58
2023/01/15 01:28:53;;;;;;;2.05;1.20;;;;;;;-144.31;100.00;58022.63;5055404;28;20040;-58
2023/01/15 01:32:18;;;;;;;0.90;0.90;;;;;;;-144.31;100.00;58022.63;5056279;28;20056;-57
2023/01/15 01:35:48;;;;;;;1.23;1.02;;;;;;;-144.31;100.00;58022.63;5057722;28;20044;-57
2023/01/15 01:39:17;;;;;;;1.83;1.10;;;;;;;-144.31;100.00;58022.63;5055132;28;20083;-59
2023/01/15 01:42:41;;;;;;;0.63;0.63;;;;;;;-144.31;100.00;58022.63;5058294;28;20091;-58
2023/01/15 01:46:14;;;;;;;1.38;1.00;;;;;;;-144.31;100.00;58022.63;5056185;28;20048;-58
2023/01/15 01:49:39;;;;;;;1.05;0.93;;;;;;;-144.31;100.00;58022.63;5052259;28;20074;-57
2023/01/15 01:53:07;;;;;;;0.80;0.80;;;;;;;-144.31;100.00;58022.63;5064703;28;20374;-57
2023/01/15 01:56:33;;;;;;;0.80;0.80;;;;;;;-144.31;100.00;58022.63;5071708;28;20049;-58
2023/01/15 01:59:58;;;;;;;0.70;0.70;;;;;;;-144.31;100.00;58022.63;5059238;28;20139;-59
2023/01/15 02:03:24;;;;;;;1.02;0.95;;;;;;;-144.31;100.00;58022.63;5057771;28;20048;-57
2023/01/15 02:06:50;;;;;;;0.77;0.77;;;;;;;-144.31;100.00;58022.63;5055562;28;20041;-58
2023/01/15 02:10:16;;;;;;;1.05;1.00;;;;;;;-144.31;100.00;58022.63;5087607;28;20037;-55
2023/01/15 02:13:49;;;;;;;2.22;1.17;;;;;;;-144.31;100.00;58022.63;5054173;28;20047;-56
2023/01/15 02:18:00;;;;;;;3.40;1.10;;;;;;;-144.31;100.00;58022.63;5055224;28;20040;-56
2023/01/15 02:21:28;;;;;;;1.10;0.95;;;;;;;-144.31;100.00;58022.63;5038161;28;20081;-58
2023/01/15 02:25:16;;;;;;;1.23;0.82;;;;;;;-144.31;100.00;58022.63;5056263;28;20385;-57
2023/01/15 02:28:46;;;;;;;1.85;0.82;;;;;;;-144.31;100.00;58022.63;5059933;28;20117;-56
2023/01/15 02:32:23;;;;;;;0.90;0.90;;;;;;;-144.31;100.00;58022.63;5057139;28;20036;-57
2023/01/15 02:35:56;;;;;;;2.95;0.80;;;;;;;-144.31;100.00;58022.63;5057021;28;20168;-54
2023/01/15 02:39:23;;;;;;;0.85;0.85;;;;;;;-144.31;100.00;58022.63;5054128;28;20129;-54
2023/01/15 02:42:49;;;;;;;1.30;0.98;;;;;;;-144.31;100.00;58022.63;5056418;28;20144;-56
2023/01/15 02:46:19;;;;;;;0.90;0.90;;;;;;;-144.31;100.00;58022.63;5057050;28;20040;-59
2023/01/15 02:49:47;;;;;;;2.17;1.00;;;;;;;-144.31;100.00;58022.63;5057047;28;20089;-61
2023/01/15 02:53:24;;;;;;;1.33;1.17;;;;;;;-144.31;100.00;58022.63;5057131;28;20044;-61
2023/01/15 02:56:50;;;;;;;1.05;0.95;;;;;;;-144.31;100.00;58022.63;5057922;28;20052;-59
2023/01/15 03:00:20;;;;;;;0.95;0.90;;;;;;;-144.31;100.00;58022.63;5059292;28;20048;-58
2023/01/15 03:04:00;;;;;;;1.10;0.98;;;;;;;-144.31;100.00;58022.63;5057077;28;20439;-55
2023/01/15 03:07:34;;;;;;;3.47;1.08;;;;;;;-144.31;100.00;58022.63;5057150;28;20477;-57
2023/01/15 03:11:08;;;;;;;0.73;0.73;;;;;;;-144.31;100.00;58022.63;5055119;28;20066;-53
2023/01/15 03:16:33;;;;;;;1.38;1.10;;;;;;;-144.31;100.00;58022.63;5046452;28;20045;-57
2023/01/15 03:19:10;;;;;;;0.98;0.90;;;;;;;-144.31;100.00;58022.63;5006747;28;20581;-58
2023/01/15 03:22:37;;;;;;;2.05;0.80;;;;;;;-144.31;100.00;58022.63;5052975;28;20045;-58
2023/01/15 03:26:07;;;;;;;0.90;0.90;;;;;;;-144.31;100.00;58022.63;5055264;28;20063;-58
2023/01/15 03:29:38;;;;;;;0.80;0.80;;;;;;;-144.31;100.00;58022.63;5053685;28;20046;-57
2023/01/15 03:33:04;;;;;;;1.20;1.00;;;;;;;-144.31;100.00;58022.63;5056327;28;20135;-58
2023/01/15 03:36:42;;;;;;;0.73;0.73;;;;;;;-144.31;100.00;58022.63;5056850;28;20041;-57
2023/01/15 03:40:06;;;;;;;0.95;0.80;;;;;;;-144.31;100.00;58022.63;5054769;28;20052;-59
2023/01/15 03:43:49;;;;;;;0.68;0.68;;;;;;;-144.31;100.00;58022.63;5056407;28;20044;-59
2023/01/15 03:47:33;;;;;;;1.13;0.80;;;;;;;-144.31;100.00;58022.63;5060426;28;20037;-57
2023/01/15 03:51:24;;;;;;;0.90;0.90;;;;;;;-144.31;100.00;58022.63;5054458;28;20555;-57
2023/01/15 03:54:55;;;;;;;0.80;0.80;;;;;;;-144.31;100.00;58022.63;5070742;28;20037;-59
2023/01/15 03:58:26;;;;;;;0.80;0.80;;;;;;;-144.31;100.00;58022.63;5053839;28;20134;-59
2023/01/15 04:01:53;;;;;;;1.02;0.90;;;;;;;-144.31;100.00;58022.63;5063889;28;20036;-58
2023/01/15 04:05:21;;;;;;;0.80;0.80;;;;;;;-144.31;100.00;58022.63;5064970;28;20046;-58
2023/01/15 04:08:46;;;;;;;1.00;0.90;;;;;;;-144.31;100.00;58022.63;5060311;28;20044;-57
2023/01/15 04:12:11;;;;;;;0.70;0.70;;;;;;;-144.31;100.00;58022.63;5060587;28;20075;-56
2023/01/15 04:15:39;;;;;;;1.70;1.00;;;;;;;-144.31;100.00;58022.63;5059768;28;20051;-54
2023/01/15 04:19:03;;;;;;;0.75;0.75;;;;;;;-144.31;100.00;58022.63;5059725;28;20045;-56
2023/01/15 04:22:29;;;;;;;0.68;0.68;;;;;;;-144.31;100.00;58022.63;5092157;28;20044;-53
2023/01/15 04:25:53;;;;;;;0.88;0.88;;;;;;;-144.31;100.00;58022.63;5056723;28;20051;-57
2023/01/15 04:29:17;;;;;;;0.63;0.60;;;;;;;-144.31;100.00;58022.63;5057896;28;20066;-58
2023/01/15 04:32:42;;;;;;;1.23;1.00;;;;;;;-144.31;100.00;58022.63;5057609;28;20110;-56
2023/01/15 04:36:07;;;;;;;0.70;0.70;;;;;;;-144.31;100.00;58022.63;5056536;28;20135;-58
2023/01/15 04:39:32;;;;;;;1.98;0.80;;;;;;;-144.31;100.00;58022.63;5059085;28;20063;-58
2023/01/15 04:46:44;;;;;;;1.40;1.17;;;;;;;-144.31;100.00;58022.63;5058063;28;20041;-59
2023/01/15 04:50:10;;;;;;;1.27;1.17;;;;;;;-144.31;100.00;58022.63;5060364;28;20051;-55
2023/01/15 04:53:34;;;;;;;3.92;1.45;;;;;;;-144.31;100.00;58022.63;5053869;28;20080;-56
2023/01/15 04:57:02;;;;;;;2.97;1.40;;;;;;;-144.31;100.00;58022.63;5058759;28;20138;-58
2023/01/15 05:00:26;;;;;;;1.60;1.00;;;;;;;-144.31;100.00;58022.63;5061517;28;20056;-54
2023/01/15 05:03:50;;;;;;;0.82;0.82;;;;;;;-144.31;100.00;58022.63;5059748;28;20531;-54
2023/01/15 05:07:13;;;;;;;0.85;0.82;;;;;;;-144.31;100.00;58022.63;5056468;28;20028;-53
2023/01/15 05:10:37;;;;;;;1.02;0.93;;;;;;;-144.31;100.00;58022.63;5057786;28;20044;-56
2023/01/15 05:14:01;;;;;;;0.80;0.80;;;;;;;-144.31;100.00;58022.63;5057460;28;20036;-54
2023/01/15 05:17:25;;;;;;;2.38;1.20;;;;;;;-144.31;100.00;58022.63;5058587;28;20063;-51
2023/01/15 05:20:50;;;;;;;2.08;0.90;;;;;;;-144.31;100.00;58022.63;5054678;28;20041;-56
2023/01/15 05:24:15;;;;;;;1.35;1.00;;;;;;;-144.31;100.00;58022.63;5055907;28;20048;-50
2023/01/15 05:27:38;;;;;;;1.10;1.00;;;;;;;-144.31;100.00;58022.63;5052609;28;20058;-53
2023/01/15 05:31:05;;;;;;;3.33;0.82;;;;;;;-144.31;100.00;58022.63;5063821;28;20075;-58
2023/01/15 05:34:29;;;;;;;1.40;0.90;;;;;;;-144.31;100.00;58022.63;5056116;28;20045;-59
2023/01/15 05:37:52;;;;;;;1.00;1.00;;;;;;;-144.31;100.00;58022.63;5064154;28;20094;-57
2023/01/15 05:44:46;;;;;;;0.88;0.88;;;;;;;-144.31;100.00;58022.63;5053810;28;20045;-57
2023/01/15 05:48:09;;;;;;;4.25;2.33;;;;;;;-144.31;100.00;58022.63;5060708;28;20050;-56
2023/01/15 05:51:30;;;;;;;1.00;1.00;;;;;;;-144.31;100.00;58022.63;5055396;28;20463;-54
2023/01/15 05:54:56;;;;;;;1.48;1.17;;;;;;;-144.31;100.00;58022.63;5055464;28;20424;-57
2023/01/15 05:58:20;;;;;;;1.25;1.15;;;;;;;-144.31;100.00;58022.63;5055612;28;20044;-57
2023/01/15 06:01:43;;;;;;;1.10;1.00;;;;;;;-144.31;100.00;58022.63;5052252;28;20033;-57
2023/01/15 06:05:07;;;;;;;1.10;1.10;;;;;;;-144.31;100.00;58022.63;5055689;28;20052;-56
2023/01/15 06:08:30;;;;;;;4.72;1.30;;;;;;;-144.31;100.00;58022.63;5056196;28;20552;-58
2023/01/15 06:11:54;;;;;;;1.30;1.20;;;;;;;-144.31;100.00;58022.63;5053862;28;20037;-57
2023/01/15 06:15:17;;;;;;;1.00;1.00;;;;;;;-144.31;100.00;58022.63;5055219;28;20513;-54
2023/01/15 06:18:40;;;;;;;1.10;1.00;;;;;;;-144.31;100.00;58022.63;5051040;28;20032;-58
2023/01/15 06:22:05;;;;;;;1.30;1.20;;;;;;;-144.31;100.00;58022.63;5056230;28;20047;-57
2023/01/15 06:25:28;;;;;;;0.98;0.98;;;;;;;-144.31;100.00;58022.63;5057195;28;20083;-58
2023/01/15 06:28:52;;;;;;;1.00;1.00;;;;;;;-144.31;100.00;58022.63;5058232;28;20041;-54
2023/01/15 06:32:17;;;;;;;1.30;1.20;;;;;;;-144.31;100.00;58022.63;5056373;28;20814;-57
2023/01/15 06:35:41;;;;;;;1.10;1.10;;;;;;;-144.31;100.00;58022.63;5049976;28;20076;-57
2023/01/15 06:39:04;;;;;;;1.70;1.45;;;;;;;-144.31;100.00;58022.63;5057141;28;20040;-57
2023/01/15 06:49:01;;;;;;;1.67;1.05;;;;;;;-144.31;100.00;58022.63;5054800;28;20040;-57
2023/01/15 06:51:26;;;;;;;2.05;1.30;;;;;;;-144.31;100.00;58022.63;5054869;28;20037;-57
2023/01/15 06:53:51;;;;;;;1.50;1.40;;;;;;;-144.31;100.00;58022.63;5054362;28;20717;-57
2023/01/15 06:56:17;;;;;;;2.70;1.17;;;;;;;-144.31;100.00;58022.63;5057097;28;20051;-58
2023/01/15 06:58:43;;;;;;;2.15;1.30;;;;;;;-144.31;100.00;58022.63;5053497;28;20036;-53
2023/01/15 07:01:11;;;;;;;1.10;1.00;;;;;;;-144.31;100.00;58022.63;5056984;28;20397;-53
2023/01/15 07:03:37;;;;;;;4.45;1.30;;;;;;;-144.31;100.00;58022.63;5070040;28;20449;-53
2023/01/15 07:06:07;;;;;;;1.90;1.52;;;;;;;-144.31;100.00;58022.63;5058147;28;20816;-57
2023/01/15 07:08:33;;;;;;;1.55;1.30;;;;;;;-144.31;100.00;58022.63;5053734;28;20140;-56
2023/01/15 07:11:07;;;;;;;1.73;1.60;;;;;;;-144.31;100.00;58022.63;5053358;28;20116;-55
2023/01/15 07:13:33;;;;;;;1.83;1.50;;;;;;;-144.31;100.00;58022.63;5056639;28;20048;-55
2023/01/15 07:16:00;;;;;;;1.70;1.50;;;;;;;-144.31;100.00;58022.63;5056332;28;20033;-57
2023/01/15 07:18:27;;;;;;;1.35;1.25;;;;;;;-144.31;100.00;58022.63;5055875;28;20041;-56
2023/01/15 07:20:57;;;;;;;2.92;1.60;;;;;;;-144.31;100.00;58022.63;5056241;28;20058;-57
2023/01/15 07:23:24;;;;;;;1.30;1.20;;;;;;;-144.31;100.00;58022.63;5058231;28;20029;-57
2023/01/15 07:26:13;;;;;;;1.10;1.10;;;;;;;-144.31;100.00;58022.63;5050631;28;20045;-58
2023/01/15 07:29:32;;;;;;;1.08;1.00;;;;;;;-144.31;100.00;58022.63;5056212;28;20804;-54
2023/01/15 07:32:17;;;;;;;1.40;1.13;;;;;;;-144.31;100.00;58022.63;5056852;28;20044;-53
2023/01/15 07:35:03;;;;;;;0.98;0.98;;;;;;;-144.31;100.00;58022.63;5054829;28;20075;-55
2023/01/15 07:37:51;;;;;;;1.07;1.07;;;;;;;-144.31;100.00;58022.63;5056246;28;20040;-55
2023/01/15 07:40:37;;;;;;;2.05;1.40;;;;;;;-144.31;100.00;58022.63;5065722;28;20048;-57
2023/01/15 07:49:47;;;;;;;2.03;1.60;;;;;;;-144.31;100.00;58022.63;5061613;28;20041;-57
2023/01/15 07:52:36;;;;;;;2.17;1.70;;;;;;;-144.31;100.00;58022.63;5058260;28;20679;-57
2023/01/15 07:55:08;;;;;;;1.65;1.40;;;;;;;-144.31;100.00;58022.63;5056860;28;20501;-55
2023/01/15 07:57:36;;;;;;;2.78;1.60;;;;;;;-144.31;100.00;58022.63;5058503;28;20071;-58
2023/01/15 08:00:04;;;;;;;2.67;1.65;;;;;;;-144.31;100.00;58022.63;5056641;28;20037;-57
2023/01/15 08:02:37;;;;;;;3.58;1.77;;;;;;;-144.31;100.00;58022.63;5061902;28;20049;-55
2023/01/15 08:05:10;;;;;;;3.72;1.88;;;;;;;-144.31;100.00;58022.63;5059588;28;20059;-56
2023/01/15 08:07:38;;;;;;;2.53;1.70;;;;;;;-144.31;100.00;58022.63;5060902;28;20740;-58
2023/01/15 08:10:03;;;;;;;3.47;1.63;;;;;;;-144.31;100.00;58022.63;5061178;28;20036;-56
2023/01/15 08:15:13;;;;;;;2.58;1.90;;;;;;;-144.31;100.00;58022.63;5059462;28;20115;-59
2023/01/15 08:17:44;;;;;;;2.92;1.75;;;;;;;-144.31;100.00;58022.63;5056519;28;20124;-58
2023/01/15 08:20:15;;;;;;;5.03;2.60;;;;;;;-144.31;100.00;58022.63;5060111;28;20057;-57
2023/01/15 08:22:41;;;;;;;4.05;2.33;;;;;;;-144.31;100.00;58022.63;5061095;28;20091;-57
2023/01/15 08:25:09;;;;;;;5.68;2.70;;;;;;;-144.31;100.00;58022.63;5057625;28;20130;-57
2023/01/15 08:27:35;;;;;;;2.40;1.70;;;;;;;-144.31;100.00;58022.63;5061066;28;20048;-56
2023/01/15 08:30:02;;;;;;;1.65;1.50;;;;;;;-144.31;100.00;58022.63;5057298;28;20240;-58
2023/01/15 08:33:24;;;;;;;2.35;1.80;;;;;;;-144.31;100.00;58022.63;5061082;28;20037;-54
2023/01/15 08:36:32;;;;;;;1.75;1.65;;;;;;;-144.31;100.00;58022.63;5060848;28;20040;-58
2023/01/15 08:39:28;;;;;;;3.28;2.10;;;;;;;-144.31;100.00;58022.63;5059473;28;20049;-58
2023/01/15 08:42:16;;;;;;;1.50;1.40;;;;;;;-144.31;100.00;58022.63;5063795;28;20044;-54
2023/01/15 08:45:09;;;;;;;1.52;1.40;;;;;;;-144.31;100.00;58022.63;5057676;28;20102;-57
2023/01/15 08:48:31;;;;;;;3.70;2.20;;;;;;;-144.31;100.00;58022.63;5056295;28;20032;-56
2023/01/15 08:51:55;;;;;;;3.05;1.73;;;;;;;-144.31;100.00;58022.63;5055556;28;20052;-53
2023/01/15 08:55:19;;;;;;;1.80;1.50;;;;;;;-144.31;100.00;58022.63;5057119;28;20037;-56
2023/01/15 08:58:44;;;;;;;4.35;1.75;;;;;;;-144.31;100.00;58022.63;5056522;28;20037;-54
2023/01/15 09:02:12;;;;;;;1.65;1.48;;;;;;;-144.31;100.00;58022.63;5057801;28;20047;-49
2023/01/15 09:05:37;;;;;;;4.50;2.22;;;;;;;-144.31;100.00;58022.63;5054407;28;20107;-54
2023/01/15 09:09:02;;;;;;;3.17;1.92;;;;;;;-144.31;100.00;58022.63;5052529;28;20095;-52
2023/01/15 09:12:26;;;;;;;1.50;1.40;;;;;;;-144.31;100.00;58022.63;5059480;28;20047;-55
2023/01/15 09:15:50;;;;;;;1.45;1.35;;;;;;;-144.31;100.00;58022.63;5056806;28;20045;-53
2023/01/15 09:19:14;;;;;;;2.17;1.80;;;;;;;-144.31;100.00;58022.63;5056448;28;20032;-55
2023/01/15 09:22:37;;;;;;;1.75;1.40;;;;;;;-144.31;100.00;58022.63;5056331;28;20036;-55
2023/01/15 09:26:06;;;;;;;2.05;1.50;;;;;;;-144.31;100.00;58022.63;5051723;28;20470;-56
2023/01/15 09:29:31;;;;;;;2.67;1.70;;;;;;;-144.31;100.00;58022.63;5058662;28;20048;-58
2023/01/15 09:32:55;;;;;;;1.33;1.23;;;;;;;-144.31;100.00;58022.63;5056130;28;20131;-55
2023/01/15 09:36:34;;;;;;;1.60;1.40;;;;;;;-144.31;100.00;58022.63;5056206;28;20063;-55
2023/01/15 09:39:58;;;;;;;1.33;1.23;;;;;;;-144.31;100.00;58022.63;5053581;28;20041;-56
2023/01/15 09:43:29;;;;;;;1.85;1.35;;;;;;;-144.31;100.00;58022.63;5057214;28;20045;-57
2023/01/15 09:47:18;;;;;;;2.30;1.50;;;;;;;-144.31;100.00;58022.63;5053408;28;20080;-52
2023/01/15 09:50:55;;;;;;;1.85;1.48;;;;;;;-144.31;100.00;58022.63;5052269;28;20481;-57
2023/01/15 09:54:40;;;;;;;1.40;1.30;;;;;;;-144.31;100.00;58022.63;5053916;28;20080;-55
2023/01/15 09:58:10;;;;;;;1.17;1.13;;;;;;;-144.31;100.00;58022.63;5055439;28;20033;-53
2023/01/15 10:01:42;;;;;;;1.20;1.20;;;;;;;-144.31;100.00;58022.63;5051327;28;20052;-57
2023/01/15 10:05:30;;;;;;;1.60;1.30;;;;;;;-144.31;100.00;58022.63;5052070;28;20056;-58
2023/01/15 10:09:10;;;;;;;1.35;1.23;;;;;;;-144.31;100.00;58022.63;5053710;28;20489;-57
2023/01/15 10:12:43;;;;;;;2.05;1.42;;;;;;;-144.31;100.00;58022.63;5056221;28;20043;-56
2023/01/15 10:16:11;;;;;;;4.05;2.05;;;;;;;-144.31;100.00;58022.63;5052830;28;20036;-56
2023/01/15 10:19:35;;;;;;;1.00;1.00;;;;;;;-144.31;100.00;58022.63;5054592;28;20041;-57
2023/01/15 10:23:20;;;;;;;2.30;1.23;;;;;;;-144.31;100.00;58022.63;5053170;28;20052;-53
2023/01/15 10:26:48;;;;;;;1.30;1.20;;;;;;;-144.31;100.00;58022.63;5056391;28;20048;-56
2023/01/15 10:30:15;;;;;;;1.45;1.35;;;;;;;-144.31;100.00;58022.63;5052557;28;20072;-57
2023/01/15 10:33:56;;;;;;;2.75;1.20;;;;;;;-144.31;100.00;58022.63;5054321;28;20047;-56
2023/01/15 10:37:49;;;;;;;1.88;1.40;;;;;;;-144.31;100.00;58022.63;5052290;28;20044;-57
2023/01/15 10:41:51;;;;;;;1.60;1.30;;;;;;;-144.31;100.00;58022.63;5046103;28;20485;-55
2023/01/15 10:45:40;;;;;;;1.50;1.30;;;;;;;-144.31;100.00;58022.63;5030334;28;20804;-54
2023/01/15 10:49:14;;;;;;;1.75;1.25;;;;;;;-144.31;100.00;58022.63;5044781;28;20041;-52
2023/01/15 10:52:42;;;;;;;1.90;1.40;;;;;;;-144.31;100.00;58022.63;5055024;28;20090;-56
2023/01/15 10:56:17;;;;;;;1.65;1.38;;;;;;;-144.31;100.00;58022.63;5054594;28;20048;-59
2023/01/15 10:59:52;;;;;;;3.72;2.10;;;;;;;-144.31;100.00;58022.63;5046250;28;20094;-57
2023/01/15 11:03:37;;;;;;;2.22;1.50;;;;;;;-144.31;100.00;58022.63;5047506;28;20041;-57
2023/01/15 11:07:02;;;;;;;2.53;1.20;;;;;;;-144.31;100.00;58022.63;5047903;28;20037;-58
2023/01/15 11:10:26;;;;;;;2.13;1.55;;;;;;;-144.31;100.00;58022.63;5043096;28;20040;-57
2023/01/15 11:21:41;;;;;;;1.65;1.42;;;;;;;-144.31;100.00;58022.63;5057800;28;20484;-55
2023/01/15 11:25:12;;;;;;;2.13;1.50;;;;;;;-144.31;100.00;58022.63;5052737;28;20040;-55
2023/01/15 11:28:42;;;;;;;2.80;1.80;;;;;;;-144.31;100.00;58022.63;5053550;28;20040;-54
2023/01/15 11:32:25;;;;;;;2.88;1.40;;;;;;;-144.31;100.00;58022.63;5053075;28;20045;-55
2023/01/15 11:35:57;;;;;;;2.00;1.58;;;;;;;-144.31;100.00;58022.63;5046389;28;20810;-54
2023/01/15 11:39:22;;;;;;;1.42;1.30;;;;;;;-144.31;100.00;58022.63;5055802;28;20037;-53
2023/01/15 11:54:03;;;;;;;3.38;1.33;;;;;;;-144.31;100.00;58022.63;5046720;28;20182;-53
2023/01/15 11:57:37;;;;;;;1.10;1.10;;;;;;;-144.31;100.00;58022.63;5055587;28;20037;-56
2023/01/15 12:01:01;;;;;;;2.25;1.55;;;;;;;-144.31;100.00;58022.63;5048940;28;20118;-55
2023/01/15 12:04:31;;;;;;;4.43;2.17;;;;;;;-144.31;100.00;58022.63;5052442;28;20381;-58
2023/01/15 12:08:01;;;;;;;2.00;1.60;;;;;;;-144.31;100.00;58022.63;5048670;28;20037;-57
2023/01/15 12:11:37;;;;;;;2.38;1.88;;;;;;;-144.31;100.00;58022.63;5052128;28;20040;-59
2023/01/15 12:15:32;;;;;;;4.55;1.92;;;;;;;-144.31;100.00;58022.63;5048405;28;20055;-57
2023/01/15 12:19:02;;;;;;;2.23;1.60;;;;;;;-144.31;100.00;58022.63;5043460;28;20398;-55
2023/01/15 12:22:55;;;;;;;3.25;2.00;;;;;;;-144.31;100.00;58022.63;5045733;28;20086;-56
2023/01/15 12:26:33;;;;;;;6.32;3.63;;;;;;;-144.31;100.00;58022.63;5047445;28;21010;-56
2023/01/15 12:30:27;;;;;;;6.82;2.70;;;;;;;-144.31;100.00;58022.63;5062905;28;20451;-57
2023/01/15 12:34:06;;;;;;;4.15;1.60;;;;;;;-144.31;100.00;58022.63;5057226;28;20490;-56
2023/01/15 12:37:45;;;;;;;3.40;1.95;;;;;;;-144.31;100.00;58022.63;5055689;28;20051;-56
2023/01/15 12:41:14;;;;;;;5.43;1.95;;;;;;;-144.31;100.00;58022.63;5054438;28;20044;-55
2023/01/15 12:45:02;;;;;;;5.63;2.13;;;;;;;-144.31;100.00;58022.63;5057712;28;20029;-57
2023/01/15 12:48:50;;;;;;;4.20;2.20;;;;;;;-144.31;100.00;58022.63;5050172;28;20040;-56
2023/01/15 12:52:23;;;;;;;2.90;1.70;;;;;;;-144.31;100.00;58022.63;5051169;28;20116;-54
2023/01/15 12:56:14;;;;;;;3.25;1.60;;;;;;;-144.31;100.00;58022.63;5051335;28;20413;-54
2023/01/15 12:59:47;;;;;;;1.95;1.40;;;;;;;-144.31;100.00;58022.63;5049652;28;20067;-57
2023/01/15 13:03:18;;;;;;;1.60;1.40;;;;;;;-144.31;100.00;58022.63;5053177;28;20037;-56
2023/01/15 13:06:45;;;;;;;3.45;1.88;;;;;;;-144.31;100.00;58022.63;5055252;28;20045;-54
2023/01/15 13:10:35;;;;;;;2.67;1.55;;;;;;;-144.31;100.00;58022.63;5054971;28;20500;-55
2023/01/15 13:14:14;;;;;;;1.77;1.50;;;;;;;-144.31;100.00;58022.63;5061106;28;20044;-54
2023/01/15 13:18:01;;;;;;;6.63;2.10;;;;;;;-144.31;100.00;58022.63;5054287;28;20401;-55
2023/01/15 13:21:30;;;;;;;4.68;1.95;;;;;;;-144.31;100.00;58022.63;5060391;28;20048;-59
2023/01/15 13:24:58;;;;;;;4.50;1.70;;;;;;;-144.31;100.00;58022.63;5053592;28;20028;-56
2023/01/15 13:29:13;;;;;;;3.47;2.10;;;;;;;-144.31;100.00;58022.63;5049643;28;20075;-56
2023/01/15 13:32:42;;;;;;;;;;;;;;;-144.31;100.00;58022.63;5021493;28;20048;-56
2023/01/15 13:36:39;;;;;;;6.20;2.17;;;;;;;-144.31;100.00;58022.63;5047376;28;20042;-54
2023/01/15 13:40:10;;;;;;;5.47;2.47;;;;;;;-144.31;100.00;58022.63;5048771;28;20052;-53
2023/01/15 13:43:40;;;;;;;8.15;2.30;;;;;;;-144.31;100.00;58022.63;5044062;28;20226;-54
2023/01/15 13:47:09;;;;;;;5.32;2.45;;;;;;;-144.31;100.00;58022.63;5052274;28;20085;-56
2023/01/15 13:50:37;;;;;;;3.50;2.15;;;;;;;-144.31;100.00;58022.63;5049239;28;20049;-57
2023/01/15 13:54:17;;;;;;;3.88;1.80;;;;;;;-144.31;100.00;58022.63;5057368;28;20044;-55
2023/01/15 13:57:42;;;;;;;3.90;1.90;;;;;;;-144.31;100.00;58022.63;5052352;28;20041;-57
2023/01/15 14:01:29;;;;;;;3.00;1.63;;;;;;;-144.31;100.00;58022.63;5047355;28;21312;-52
2023/01/15 14:05:21;;;;;;;3.10;1.60;;;;;;;-144.31;100.00;58022.63;5052007;28;20053;-57
2023/01/15 14:08:46;;;;;;;2.15;1.50;;;;;;;-144.31;100.00;58022.63;5046687;28;20036;-53
2023/01/15 14:12:44;;;;;;;3.60;1.70;;;;;;;-144.31;100.00;58022.63;5045983;28;20575;-55
2023/01/15 14:16:34;;;;;;;2.35;1.60;;;;;;;-144.31;100.00;58022.63;5045950;28;20536;-55
2023/01/15 14:20:17;;;;;;;3.92;1.90;;;;;;;-144.31;100.00;58022.63;5055809;28;20105;-54
2023/01/15 14:23:56;;;;;;;2.97;1.60;;;;;;;-144.31;100.00;58022.63;5050151;28;20063;-59
2023/01/15 14:27:58;;;;;;;2.05;1.50;;;;;;;-144.31;100.00;58022.63;5055252;28;20072;-58
2023/01/15 14:31:45;;;;;;;2.60;1.70;;;;;;;-144.31;100.00;58022.63;5048309;28;20510;-55
2023/01/15 14:35:23;;;;;;;2.70;1.67;;;;;;;-144.31;100.00;58022.63;5051418;28;20127;-57
2023/01/15 14:38:54;;;;;;;1.95;1.48;;;;;;;-144.31;100.00;58022.63;5054258;28;20530;-56
2023/01/15 14:46:24;;;;;;;2.75;1.55;;;;;;;-144.31;100.00;58022.63;5053828;28;20036;-56
2023/01/15 14:49:58;;;;;;;4.15;1.58;;;;;;;-144.31;100.00;58022.63;5054262;28;20040;-58
2023/01/15 14:53:43;;;;;;;3.30;1.90;;;;;;;-144.31;100.00;58022.63;5047045;28;20040;-55
2023/01/15 14:57:22;;;;;;;3.47;1.73;;;;;;;-144.31;100.00;58022.63;5051444;28;20043;-57
2023/01/15 15:00:51;;;;;;;1.88;1.45;;;;;;;-144.31;100.00;58022.63;5050109;28;20401;-56
2023/01/15 15:04:22;;;;;;;5.20;2.08;;;;;;;-144.31;100.00;58022.63;5045170;28;20081;-56
2023/01/15 15:07:47;;;;;;;2.63;1.80;;;;;;;-144.31;100.00;58022.63;5045729;28;20536;-56
2023/01/15 15:15:18;;;;;;;4.25;1.92;;;;;;;-144.31;100.00;58022.63;5055977;28;20581;-53
2023/01/15 15:19:00;;;;;;;3.17;1.77;;;;;;;-144.31;100.00;58022.63;5051640;28;20049;-53
2023/01/15 15:22:28;;;;;;;5.03;1.88;;;;;;;-144.31;100.00;58022.63;5050120;28;20047;-58
2023/01/15 15:25:56;;;;;;;6.75;2.08;;;;;;;-144.31;100.00;58022.63;5047227;28;20061;-55
2023/01/15 15:29:21;;;;;;;3.72;1.98;;;;;;;-144.31;100.00;58022.63;5046006;28;20052;-54
2023/01/15 15:32:45;;;;;;;7.97;2.00;;;;;;;-144.31;100.00;58022.63;5047464;28;20623;-52
2023/01/15 15:36:27;;;;;;;4.30;1.88;;;;;;;-144.31;100.00;58022.63;5044600;28;20104;-56
2023/01/15 15:39:58;;;;;;;3.10;1.70;;;;;;;-144.31;100.00;58022.63;5046211;28;20053;-62
2023/01/15 15:51:29;;;;;;;2.17;1.55;;;;;;;-144.31;100.00;58022.63;5032448;28;20493;-57
2023/01/15 15:55:15;;;;;;;3.92;1.67;;;;;;;-144.31;100.00;58022.63;5052995;28;20927;-57
2023/01/15 15:58:39;;;;;;;4.03;1.90;;;;;;;-144.31;100.00;58022.63;5053857;28;20083;-57
2023/01/15 16:02:14;;;;;;;4.45;1.83;;;;;;;-144.31;100.00;58022.63;5049984;28;20046;-55
2023/01/15 16:05:47;;;;;;;2.80;1.50;;;;;;;-144.31;100.00;58022.63;5050070;28;20051;-58
2023/01/15 16:09:22;;;;;;;4.30;1.70;;;;;;;-144.31;100.00;58022.63;5050105;28;20045;-57
2023/01/15 16:12:49;;;;;;;3.05;1.40;;;;;;;-144.31;100.00;58022.63;5034083;28;20544;-57
2023/01/15 16:16:16;;;;;;;2.90;1.70;;;;;;;-144.31;100.00;58022.63;5027598;28;20041;-57
2023/01/15 16:19:42;;;;;;;4.78;1.90;;;;;;;-144.31;100.00;58022.63;5034321;28;20103;-54
2023/01/15 16:23:18;;;;;;;3.15;1.52;;;;;;;-144.31;100.00;58022.63;5035226;28;20032;-55
2023/01/15 16:27:17;;;;;;;4.03;1.70;;;;;;;-144.31;100.00;58022.63;5034852;28;20387;-54
2023/01/15 16:30:53;;;;;;;2.92;1.80;;;;;;;-144.31;100.00;58022.63;5024849;28;20057;-56